Decoded Metar for CYAH (LA GRANDE IV ARP in QC, CANADA) (IATA:YAH) | Meteo·Mobile Aviation Weather
aviador You're here:

CYAH Decoded Metar

LA GRANDE IV ARP in QC, CANADA
Report Time2019-01-19 06:45:00
UTC Time2019-01-19 06:58:42
Flight Rules vfr VFR
Wind240° at 10 kt
W.Decomp.*RWY 27: 9.8 kt HW 1.9 kt LCW
W.Rank240° ranks 5
Current wind is above 240° avg. (9.0)
Visibility9999 m
Phenomena:Light Snow
Clouds:N/A
Expected CloudBase > 1,600 ft AGL from Temp-Dew spread
CeilingNone
Temp-35°C (ISA -48)
Dew Point-39°C (67% RH)
AAT-42.5°C
QNH1020 hPa
Density Alt-5,597 ft
Elevation1,004 ft
Report Wrong Elevation
Raw Report
SPECI CYAH 190645Z AUTO 24010KT 9SM -SN CLR M35/M39 A3011 RMK SLP246=

Extra information for CYAH:More info

Metar Taf Metar & Taf Last 4 Metars F.Rules Stats Wind Profile Meteogram Temp Stats Airport Information Weather charts Add Link Nearby VenuesMetar ALERT Operation Metar Decoded Social comments